sensor_id;sensor_type;location;lat;lon;timestamp;P1;durP1;ratioP1;P2;durP2;ratioP2
11703;SDS011;5908;51.354;7.458;2023-06-14T00:01:57;9.07;;;8.18;;
11703;SDS011;5908;51.354;7.458;2023-06-14T00:04:23;15.68;;;12.82;;
11703;SDS011;5908;51.354;7.458;2023-06-14T00:06:51;13.50;;;10.88;;
11703;SDS011;5908;51.354;7.458;2023-06-14T00:09:18;10.20;;;8.38;;
11703;SDS011;5908;51.354;7.458;2023-06-14T00:11:44;11.15;;;9.95;;
11703;SDS011;5908;51.354;7.458;2023-06-14T00:14:11;11.30;;;9.50;;
11703;SDS011;5908;51.354;7.458;2023-06-14T00:16:39;9.70;;;7.90;;
11703;SDS011;5908;51.354;7.458;2023-06-14T00:19:07;9.13;;;8.05;;
11703;SDS011;5908;51.354;7.458;2023-06-14T00:21:35;11.05;;;9.27;;
11703;SDS011;5908;51.354;7.458;2023-06-14T00:24:03;14.52;;;11.85;;
11703;SDS011;5908;51.354;7.458;2023-06-14T00:26:30;11.07;;;9.05;;
11703;SDS011;5908;51.354;7.458;2023-06-14T00:28:57;13.10;;;10.55;;
11703;SDS011;5908;51.354;7.458;2023-06-14T00:31:23;10.05;;;8.80;;
11703;SDS011;5908;51.354;7.458;2023-06-14T00:33:51;13.30;;;9.13;;
11703;SDS011;5908;51.354;7.458;2023-06-14T00:36:18;11.30;;;8.55;;
11703;SDS011;5908;51.354;7.458;2023-06-14T00:38:45;12.13;;;10.82;;
11703;SDS011;5908;51.354;7.458;2023-06-14T00:41:12;10.10;;;8.65;;
11703;SDS011;5908;51.354;7.458;2023-06-14T00:43:39;9.82;;;8.50;;
11703;SDS011;5908;51.354;7.458;2023-06-14T00:46:05;9.30;;;7.75;;
11703;SDS011;5908;51.354;7.458;2023-06-14T00:48:32;9.82;;;8.45;;
11703;SDS011;5908;51.354;7.458;2023-06-14T00:51:01;9.00;;;7.57;;
11703;SDS011;5908;51.354;7.458;2023-06-14T00:53:29;22.15;;;18.98;;
11703;SDS011;5908;51.354;7.458;2023-06-14T00:55:58;11.70;;;10.50;;
11703;SDS011;5908;51.354;7.458;2023-06-14T00:58:26;10.18;;;8.02;;
11703;SDS011;5908;51.354;7.458;2023-06-14T01:00:53;9.48;;;8.30;;
11703;SDS011;5908;51.354;7.458;2023-06-14T01:03:21;10.70;;;8.48;;
11703;SDS011;5908;51.354;7.458;2023-06-14T01:05:48;13.68;;;11.65;;
11703;SDS011;5908;51.354;7.458;2023-06-14T01:08:21;13.00;;;10.38;;
11703;SDS011;5908;51.354;7.458;2023-06-14T01:10:53;10.00;;;9.00;;
11703;SDS011;5908;51.354;7.458;2023-06-14T01:13:31;11.75;;;8.98;;
11703;SDS011;5908;51.354;7.458;2023-06-14T01:16:00;9.80;;;8.15;;
11703;SDS011;5908;51.354;7.458;2023-06-14T01:18:27;9.13;;;8.20;;
11703;SDS011;5908;51.354;7.458;2023-06-14T01:20:55;11.90;;;8.50;;
11703;SDS011;5908;51.354;7.458;2023-06-14T01:23:23;14.05;;;11.68;;
11703;SDS011;5908;51.354;7.458;2023-06-14T01:25:57;10.70;;;8.93;;
11703;SDS011;5908;51.354;7.458;2023-06-14T01:28:25;13.98;;;10.00;;
11703;SDS011;5908;51.354;7.458;2023-06-14T01:30:57;10.07;;;9.07;;
11703;SDS011;5908;51.354;7.458;2023-06-14T01:33:29;10.65;;;9.00;;
11703;SDS011;5908;51.354;7.458;2023-06-14T01:35:58;10.57;;;9.45;;
11703;SDS011;5908;51.354;7.458;2023-06-14T01:38:27;10.82;;;9.02;;
11703;SDS011;5908;51.354;7.458;2023-06-14T01:40:55;10.73;;;9.07;;
11703;SDS011;5908;51.354;7.458;2023-06-14T01:43:24;10.88;;;9.32;;
11703;SDS011;5908;51.354;7.458;2023-06-14T01:45:51;10.93;;;9.75;;
11703;SDS011;5908;51.354;7.458;2023-06-14T01:48:20;10.95;;;9.68;;
11703;SDS011;5908;51.354;7.458;2023-06-14T01:50:48;10.57;;;9.32;;
11703;SDS011;5908;51.354;7.458;2023-06-14T01:53:16;13.00;;;11.45;;
11703;SDS011;5908;51.354;7.458;2023-06-14T01:55:44;13.65;;;10.00;;
11703;SDS011;5908;51.354;7.458;2023-06-14T01:58:13;10.57;;;9.15;;
11703;SDS011;5908;51.354;7.458;2023-06-14T02:00:41;11.43;;;10.23;;
11703;SDS011;5908;51.354;7.458;2023-06-14T02:03:08;11.38;;;9.77;;
11703;SDS011;5908;51.354;7.458;2023-06-14T02:05:36;9.73;;;8.07;;
11703;SDS011;5908;51.354;7.458;2023-06-14T02:08:04;10.05;;;8.55;;
11703;SDS011;5908;51.354;7.458;2023-06-14T02:10:31;9.85;;;8.55;;
11703;SDS011;5908;51.354;7.458;2023-06-14T02:12:59;10.18;;;8.38;;
11703;SDS011;5908;51.354;7.458;2023-06-14T02:15:26;10.52;;;8.55;;
11703;SDS011;5908;51.354;7.458;2023-06-14T02:18:00;8.85;;;7.95;;
11703;SDS011;5908;51.354;7.458;2023-06-14T02:20:28;9.57;;;8.40;;
11703;SDS011;5908;51.354;7.458;2023-06-14T02:22:55;24.20;;;19.60;;
11703;SDS011;5908;51.354;7.458;2023-06-14T02:25:22;11.00;;;9.50;;
11703;SDS011;5908;51.354;7.458;2023-06-14T02:27:49;10.38;;;8.25;;
11703;SDS011;5908;51.354;7.458;2023-06-14T02:30:17;9.70;;;8.75;;
11703;SDS011;5908;51.354;7.458;2023-06-14T02:32:44;11.27;;;8.88;;
11703;SDS011;5908;51.354;7.458;2023-06-14T02:35:13;9.75;;;8.35;;
11703;SDS011;5908;51.354;7.458;2023-06-14T02:37:40;9.73;;;8.73;;
11703;SDS011;5908;51.354;7.458;2023-06-14T02:40:08;9.45;;;8.45;;
11703;SDS011;5908;51.354;7.458;2023-06-14T02:42:35;10.77;;;8.82;;
11703;SDS011;5908;51.354;7.458;2023-06-14T02:45:02;10.55;;;8.77;;
11703;SDS011;5908;51.354;7.458;2023-06-14T02:47:30;10.18;;;9.15;;
11703;SDS011;5908;51.354;7.458;2023-06-14T02:49:57;9.95;;;8.57;;
11703;SDS011;5908;51.354;7.458;2023-06-14T02:52:24;9.40;;;8.00;;
11703;SDS011;5908;51.354;7.458;2023-06-14T02:54:51;9.70;;;8.63;;
11703;SDS011;5908;51.354;7.458;2023-06-14T02:57:19;11.93;;;8.93;;
11703;SDS011;5908;51.354;7.458;2023-06-14T02:59:46;10.32;;;8.93;;
11703;SDS011;5908;51.354;7.458;2023-06-14T03:02:12;9.70;;;8.23;;
11703;SDS011;5908;51.354;7.458;2023-06-14T03:04:40;16.65;;;9.32;;
11703;SDS011;5908;51.354;7.458;2023-06-14T03:07:09;11.18;;;8.45;;
11703;SDS011;5908;51.354;7.458;2023-06-14T03:09:37;10.25;;;8.23;;
11703;SDS011;5908;51.354;7.458;2023-06-14T03:12:05;9.80;;;8.45;;
11703;SDS011;5908;51.354;7.458;2023-06-14T03:14:34;11.63;;;10.23;;
11703;SDS011;5908;51.354;7.458;2023-06-14T03:17:01;12.85;;;10.30;;
11703;SDS011;5908;51.354;7.458;2023-06-14T03:19:29;12.43;;;11.10;;
11703;SDS011;5908;51.354;7.458;2023-06-14T03:21:58;17.23;;;13.95;;
11703;SDS011;5908;51.354;7.458;2023-06-14T03:24:25;20.40;;;17.65;;
11703;SDS011;5908;51.354;7.458;2023-06-14T03:26:53;15.07;;;11.27;;
11703;SDS011;5908;51.354;7.458;2023-06-14T03:29:21;11.75;;;9.30;;
11703;SDS011;5908;51.354;7.458;2023-06-14T03:31:59;22.30;;;16.92;;
11703;SDS011;5908;51.354;7.458;2023-06-14T03:34:27;13.95;;;11.13;;
11703;SDS011;5908;51.354;7.458;2023-06-14T03:36:53;10.77;;;9.68;;
11703;SDS011;5908;51.354;7.458;2023-06-14T03:39:22;9.60;;;8.65;;
11703;SDS011;5908;51.354;7.458;2023-06-14T03:41:48;11.13;;;9.02;;
11703;SDS011;5908;51.354;7.458;2023-06-14T03:44:15;11.05;;;8.70;;
11703;SDS011;5908;51.354;7.458;2023-06-14T03:46:43;10.82;;;8.60;;
11703;SDS011;5908;51.354;7.458;2023-06-14T03:49:10;16.17;;;12.05;;
11703;SDS011;5908;51.354;7.458;2023-06-14T03:51:37;11.02;;;9.77;;
11703;SDS011;5908;51.354;7.458;2023-06-14T03:54:05;12.23;;;9.27;;
11703;SDS011;5908;51.354;7.458;2023-06-14T03:56:34;15.82;;;11.77;;
11703;SDS011;5908;51.354;7.458;2023-06-14T03:59:01;26.88;;;22.05;;
11703;SDS011;5908;51.354;7.458;2023-06-14T04:01:28;11.98;;;7.88;;
11703;SDS011;5908;51.354;7.458;2023-06-14T04:03:56;9.60;;;7.82;;
11703;SDS011;5908;51.354;7.458;2023-06-14T04:06:23;8.77;;;7.18;;
11703;SDS011;5908;51.354;7.458;2023-06-14T04:08:57;8.63;;;7.70;;
11703;SDS011;5908;51.354;7.458;2023-06-14T04:11:28;8.05;;;7.25;;
11703;SDS011;5908;51.354;7.458;2023-06-14T04:13:56;11.65;;;8.07;;
11703;SDS011;5908;51.354;7.458;2023-06-14T04:16:23;8.68;;;7.78;;
11703;SDS011;5908;51.354;7.458;2023-06-14T04:18:50;275.95;;;35.05;;
11703;SDS011;5908;51.354;7.458;2023-06-14T04:21:17;8.65;;;7.35;;
11703;SDS011;5908;51.354;7.458;2023-06-14T04:23:45;8.88;;;7.45;;
11703;SDS011;5908;51.354;7.458;2023-06-14T04:26:11;12.48;;;7.80;;
11703;SDS011;5908;51.354;7.458;2023-06-14T04:28:39;8.60;;;7.70;;
11703;SDS011;5908;51.354;7.458;2023-06-14T04:31:08;10.25;;;7.90;;
11703;SDS011;5908;51.354;7.458;2023-06-14T04:33:34;11.20;;;8.40;;
11703;SDS011;5908;51.354;7.458;2023-06-14T04:36:08;8.85;;;7.85;;
11703;SDS011;5908;51.354;7.458;2023-06-14T04:38:35;9.32;;;8.32;;
11703;SDS011;5908;51.354;7.458;2023-06-14T04:41:01;8.65;;;7.75;;
11703;SDS011;5908;51.354;7.458;2023-06-14T04:43:28;9.55;;;7.72;;
11703;SDS011;5908;51.354;7.458;2023-06-14T04:45:56;10.45;;;8.02;;
11703;SDS011;5908;51.354;7.458;2023-06-14T04:48:25;7.97;;;7.18;;
11703;SDS011;5908;51.354;7.458;2023-06-14T04:50:51;9.48;;;7.93;;
11703;SDS011;5908;51.354;7.458;2023-06-14T04:53:19;10.50;;;8.02;;
11703;SDS011;5908;51.354;7.458;2023-06-14T04:55:47;9.82;;;7.65;;
11703;SDS011;5908;51.354;7.458;2023-06-14T04:58:15;11.55;;;7.53;;
11703;SDS011;5908;51.354;7.458;2023-06-14T05:00:42;12.05;;;8.20;;
11703;SDS011;5908;51.354;7.458;2023-06-14T05:03:09;9.98;;;7.75;;
11703;SDS011;5908;51.354;7.458;2023-06-14T05:05:40;13.77;;;8.60;;
11703;SDS011;5908;51.354;7.458;2023-06-14T05:08:06;12.00;;;8.18;;
11703;SDS011;5908;51.354;7.458;2023-06-14T05:10:33;11.15;;;8.43;;
11703;SDS011;5908;51.354;7.458;2023-06-14T05:13:01;12.05;;;8.23;;
11703;SDS011;5908;51.354;7.458;2023-06-14T05:15:27;15.23;;;8.20;;
11703;SDS011;5908;51.354;7.458;2023-06-14T05:17:55;14.65;;;8.57;;
11703;SDS011;5908;51.354;7.458;2023-06-14T05:20:22;11.30;;;7.90;;
11703;SDS011;5908;51.354;7.458;2023-06-14T05:22:51;14.63;;;8.93;;
11703;SDS011;5908;51.354;7.458;2023-06-14T05:25:18;12.88;;;8.18;;
11703;SDS011;5908;51.354;7.458;2023-06-14T05:27:45;14.00;;;8.23;;
11703;SDS011;5908;51.354;7.458;2023-06-14T05:30:13;12.27;;;8.43;;
11703;SDS011;5908;51.354;7.458;2023-06-14T05:32:40;13.05;;;8.15;;
11703;SDS011;5908;51.354;7.458;2023-06-14T05:35:07;14.40;;;8.60;;
11703;SDS011;5908;51.354;7.458;2023-06-14T05:37:35;10.32;;;7.97;;
11703;SDS011;5908;51.354;7.458;2023-06-14T05:40:03;9.02;;;8.07;;
11703;SDS011;5908;51.354;7.458;2023-06-14T05:42:31;15.68;;;12.60;;
11703;SDS011;5908;51.354;7.458;2023-06-14T05:44:58;50.25;;;35.22;;
11703;SDS011;5908;51.354;7.458;2023-06-14T05:47:25;10.57;;;8.50;;
11703;SDS011;5908;51.354;7.458;2023-06-14T05:49:52;12.80;;;8.52;;
11703;SDS011;5908;51.354;7.458;2023-06-14T05:52:19;10.55;;;7.25;;
11703;SDS011;5908;51.354;7.458;2023-06-14T05:54:46;9.15;;;7.03;;
11703;SDS011;5908;51.354;7.458;2023-06-14T05:57:15;11.50;;;7.50;;
11703;SDS011;5908;51.354;7.458;2023-06-14T05:59:42;11.18;;;6.28;;
11703;SDS011;5908;51.354;7.458;2023-06-14T06:02:08;10.13;;;6.90;;
11703;SDS011;5908;51.354;7.458;2023-06-14T06:04:35;9.02;;;6.45;;
11703;SDS011;5908;51.354;7.458;2023-06-14T06:07:02;10.00;;;6.57;;
11703;SDS011;5908;51.354;7.458;2023-06-14T06:09:30;8.90;;;6.68;;
11703;SDS011;5908;51.354;7.458;2023-06-14T06:11:57;9.35;;;6.00;;
11703;SDS011;5908;51.354;7.458;2023-06-14T06:14:25;7.57;;;6.25;;
11703;SDS011;5908;51.354;7.458;2023-06-14T06:16:52;10.57;;;6.70;;
11703;SDS011;5908;51.354;7.458;2023-06-14T06:19:18;8.02;;;6.35;;
11703;SDS011;5908;51.354;7.458;2023-06-14T06:21:45;8.77;;;6.22;;
11703;SDS011;5908;51.354;7.458;2023-06-14T06:24:12;7.80;;;5.80;;
11703;SDS011;5908;51.354;7.458;2023-06-14T06:26:39;6.82;;;5.60;;
11703;SDS011;5908;51.354;7.458;2023-06-14T06:29:05;9.95;;;5.88;;
11703;SDS011;5908;51.354;7.458;2023-06-14T06:31:34;9.88;;;5.75;;
11703;SDS011;5908;51.354;7.458;2023-06-14T06:34:00;9.07;;;5.43;;
11703;SDS011;5908;51.354;7.458;2023-06-14T06:36:27;8.93;;;5.68;;
11703;SDS011;5908;51.354;7.458;2023-06-14T06:38:54;9.68;;;5.32;;
11703;SDS011;5908;51.354;7.458;2023-06-14T06:41:21;7.40;;;4.90;;
11703;SDS011;5908;51.354;7.458;2023-06-14T06:43:48;9.55;;;4.85;;
11703;SDS011;5908;51.354;7.458;2023-06-14T06:46:15;4.88;;;4.10;;
11703;SDS011;5908;51.354;7.458;2023-06-14T06:48:44;7.75;;;4.55;;
11703;SDS011;5908;51.354;7.458;2023-06-14T06:51:11;6.10;;;4.65;;
11703;SDS011;5908;51.354;7.458;2023-06-14T06:53:38;5.43;;;4.03;;
11703;SDS011;5908;51.354;7.458;2023-06-14T06:56:05;6.57;;;4.47;;
11703;SDS011;5908;51.354;7.458;2023-06-14T06:58:32;5.32;;;3.33;;
11703;SDS011;5908;51.354;7.458;2023-06-14T07:00:58;6.88;;;3.92;;
11703;SDS011;5908;51.354;7.458;2023-06-14T07:03:25;5.28;;;3.88;;
11703;SDS011;5908;51.354;7.458;2023-06-14T07:05:53;5.65;;;3.20;;
11703;SDS011;5908;51.354;7.458;2023-06-14T07:08:20;4.40;;;3.45;;
11703;SDS011;5908;51.354;7.458;2023-06-14T07:10:47;5.15;;;3.47;;
11703;SDS011;5908;51.354;7.458;2023-06-14T07:13:13;6.90;;;3.63;;
11703;SDS011;5908;51.354;7.458;2023-06-14T07:15:40;4.00;;;3.30;;
11703;SDS011;5908;51.354;7.458;2023-06-14T07:18:07;5.13;;;3.42;;
11703;SDS011;5908;51.354;7.458;2023-06-14T07:20:34;4.28;;;3.22;;
11703;SDS011;5908;51.354;7.458;2023-06-14T07:23:04;5.50;;;3.28;;
11703;SDS011;5908;51.354;7.458;2023-06-14T07:25:31;3.97;;;3.58;;
11703;SDS011;5908;51.354;7.458;2023-06-14T07:27:58;5.53;;;3.50;;
11703;SDS011;5908;51.354;7.458;2023-06-14T07:30:25;4.30;;;3.65;;
11703;SDS011;5908;51.354;7.458;2023-06-14T07:32:52;4.38;;;3.10;;
11703;SDS011;5908;51.354;7.458;2023-06-14T07:35:19;6.10;;;3.35;;
11703;SDS011;5908;51.354;7.458;2023-06-14T07:37:46;5.55;;;3.25;;
11703;SDS011;5908;51.354;7.458;2023-06-14T07:40:14;4.45;;;3.38;;
11703;SDS011;5908;51.354;7.458;2023-06-14T07:42:41;4.57;;;3.30;;
11703;SDS011;5908;51.354;7.458;2023-06-14T07:45:08;6.43;;;3.30;;
11703;SDS011;5908;51.354;7.458;2023-06-14T07:47:35;3.50;;;3.13;;
11703;SDS011;5908;51.354;7.458;2023-06-14T07:50:02;4.20;;;3.53;;
11703;SDS011;5908;51.354;7.458;2023-06-14T07:52:29;6.78;;;3.10;;
11703;SDS011;5908;51.354;7.458;2023-06-14T07:54:56;4.57;;;3.00;;
11703;SDS011;5908;51.354;7.458;2023-06-14T07:57:24;3.22;;;2.92;;
11703;SDS011;5908;51.354;7.458;2023-06-14T07:59:51;3.95;;;2.83;;
11703;SDS011;5908;51.354;7.458;2023-06-14T08:02:18;6.65;;;2.90;;
11703;SDS011;5908;51.354;7.458;2023-06-14T08:04:44;4.40;;;2.78;;
11703;SDS011;5908;51.354;7.458;2023-06-14T08:07:11;5.50;;;2.90;;
11703;SDS011;5908;51.354;7.458;2023-06-14T08:09:38;4.07;;;2.92;;
11703;SDS011;5908;51.354;7.458;2023-06-14T08:12:05;4.57;;;2.90;;
11703;SDS011;5908;51.354;7.458;2023-06-14T08:14:36;3.10;;;2.78;;
11703;SDS011;5908;51.354;7.458;2023-06-14T08:17:03;4.13;;;2.60;;
11703;SDS011;5908;51.354;7.458;2023-06-14T08:19:30;6.18;;;2.70;;
11703;SDS011;5908;51.354;7.458;2023-06-14T08:21:57;4.55;;;2.95;;
11703;SDS011;5908;51.354;7.458;2023-06-14T08:24:23;4.32;;;2.45;;
11703;SDS011;5908;51.354;7.458;2023-06-14T08:26:51;5.35;;;2.78;;
11703;SDS011;5908;51.354;7.458;2023-06-14T08:29:18;5.40;;;2.90;;
11703;SDS011;5908;51.354;7.458;2023-06-14T08:31:47;5.80;;;2.90;;
11703;SDS011;5908;51.354;7.458;2023-06-14T08:34:14;3.58;;;2.50;;
11703;SDS011;5908;51.354;7.458;2023-06-14T08:36:41;5.18;;;2.95;;
11703;SDS011;5908;51.354;7.458;2023-06-14T08:39:08;3.28;;;2.33;;
11703;SDS011;5908;51.354;7.458;2023-06-14T08:41:35;4.68;;;2.63;;
11703;SDS011;5908;51.354;7.458;2023-06-14T08:44:02;2.72;;;2.33;;
11703;SDS011;5908;51.354;7.458;2023-06-14T08:46:29;3.33;;;2.58;;
11703;SDS011;5908;51.354;7.458;2023-06-14T08:49:00;4.32;;;2.35;;
11703;SDS011;5908;51.354;7.458;2023-06-14T08:51:28;4.15;;;2.55;;
11703;SDS011;5908;51.354;7.458;2023-06-14T08:53:59;3.10;;;2.50;;
11703;SDS011;5908;51.354;7.458;2023-06-14T08:56:27;2.90;;;2.55;;
11703;SDS011;5908;51.354;7.458;2023-06-14T08:58:55;4.55;;;2.72;;
11703;SDS011;5908;51.354;7.458;2023-06-14T09:01:23;3.45;;;2.40;;
11703;SDS011;5908;51.354;7.458;2023-06-14T09:03:50;3.85;;;2.30;;
11703;SDS011;5908;51.354;7.458;2023-06-14T09:06:18;2.95;;;2.60;;
11703;SDS011;5908;51.354;7.458;2023-06-14T09:08:48;3.67;;;2.67;;
11703;SDS011;5908;51.354;7.458;2023-06-14T09:11:16;2.90;;;2.45;;
11703;SDS011;5908;51.354;7.458;2023-06-14T09:13:44;3.45;;;2.90;;
11703;SDS011;5908;51.354;7.458;2023-06-14T09:16:12;5.45;;;2.90;;
11703;SDS011;5908;51.354;7.458;2023-06-14T09:18:40;6.47;;;2.80;;
11703;SDS011;5908;51.354;7.458;2023-06-14T09:21:09;2.97;;;2.67;;
11703;SDS011;5908;51.354;7.458;2023-06-14T09:23:38;4.30;;;2.67;;
11703;SDS011;5908;51.354;7.458;2023-06-14T09:26:06;3.92;;;2.65;;
11703;SDS011;5908;51.354;7.458;2023-06-14T09:28:34;2.30;;;2.10;;
11703;SDS011;5908;51.354;7.458;2023-06-14T09:31:01;3.13;;;2.22;;
11703;SDS011;5908;51.354;7.458;2023-06-14T09:33:28;2.67;;;2.10;;
11703;SDS011;5908;51.354;7.458;2023-06-14T09:35:54;2.97;;;2.20;;
11703;SDS011;5908;51.354;7.458;2023-06-14T09:38:21;2.60;;;2.38;;
11703;SDS011;5908;51.354;7.458;2023-06-14T09:40:50;4.60;;;2.10;;
11703;SDS011;5908;51.354;7.458;2023-06-14T09:43:17;3.25;;;2.20;;
11703;SDS011;5908;51.354;7.458;2023-06-14T09:45:46;2.20;;;2.00;;
11703;SDS011;5908;51.354;7.458;2023-06-14T09:48:14;3.88;;;1.98;;
11703;SDS011;5908;51.354;7.458;2023-06-14T09:50:42;2.60;;;2.22;;
11703;SDS011;5908;51.354;7.458;2023-06-14T09:53:11;3.17;;;2.40;;
11703;SDS011;5908;51.354;7.458;2023-06-14T09:55:40;2.55;;;2.13;;
11703;SDS011;5908;51.354;7.458;2023-06-14T09:58:09;3.78;;;2.17;;
11703;SDS011;5908;51.354;7.458;2023-06-14T10:00:37;2.28;;;2.08;;
11703;SDS011;5908;51.354;7.458;2023-06-14T10:03:06;2.50;;;2.30;;
11703;SDS011;5908;51.354;7.458;2023-06-14T10:05:39;2.15;;;1.80;;
11703;SDS011;5908;51.354;7.458;2023-06-14T10:08:08;2.15;;;1.70;;
11703;SDS011;5908;51.354;7.458;2023-06-14T10:10:38;2.35;;;1.80;;
11703;SDS011;5908;51.354;7.458;2023-06-14T10:13:05;2.72;;;1.70;;
11703;SDS011;5908;51.354;7.458;2023-06-14T10:15:35;4.25;;;2.13;;
11703;SDS011;5908;51.354;7.458;2023-06-14T10:18:08;4.10;;;2.38;;
11703;SDS011;5908;51.354;7.458;2023-06-14T10:20:48;3.17;;;2.10;;
11703;SDS011;5908;51.354;7.458;2023-06-14T10:23:22;2.95;;;2.10;;
11703;SDS011;5908;51.354;7.458;2023-06-14T10:25:50;4.85;;;2.30;;
11703;SDS011;5908;51.354;7.458;2023-06-14T10:28:22;3.42;;;1.98;;
11703;SDS011;5908;51.354;7.458;2023-06-14T10:31:03;2.40;;;2.17;;
11703;SDS011;5908;51.354;7.458;2023-06-14T10:33:32;3.53;;;2.10;;
11703;SDS011;5908;51.354;7.458;2023-06-14T10:38:58;2.60;;;1.90;;
11703;SDS011;5908;51.354;7.458;2023-06-14T10:41:27;3.63;;;2.10;;
11703;SDS011;5908;51.354;7.458;2023-06-14T10:44:21;3.15;;;2.30;;
11703;SDS011;5908;51.354;7.458;2023-06-14T10:47:07;2.75;;;1.90;;
11703;SDS011;5908;51.354;7.458;2023-06-14T10:49:37;2.50;;;1.80;;
11703;SDS011;5908;51.354;7.458;2023-06-14T10:52:09;4.95;;;1.85;;
11703;SDS011;5908;51.354;7.458;2023-06-14T10:54:54;2.00;;;1.77;;
11703;SDS011;5908;51.354;7.458;2023-06-14T10:57:22;3.58;;;2.28;;
11703;SDS011;5908;51.354;7.458;2023-06-14T10:59:49;2.53;;;1.95;;
11703;SDS011;5908;51.354;7.458;2023-06-14T11:02:30;6.45;;;2.80;;
11703;SDS011;5908;51.354;7.458;2023-06-14T11:05:13;3.83;;;2.22;;
11703;SDS011;5908;51.354;7.458;2023-06-14T11:07:43;1.92;;;1.83;;
11703;SDS011;5908;51.354;7.458;2023-06-14T11:10:20;2.45;;;2.20;;
11703;SDS011;5908;51.354;7.458;2023-06-14T11:12:54;2.30;;;2.10;;
11703;SDS011;5908;51.354;7.458;2023-06-14T11:15:27;3.38;;;2.60;;
11703;SDS011;5908;51.354;7.458;2023-06-14T11:17:55;2.72;;;2.38;;
11703;SDS011;5908;51.354;7.458;2023-06-14T11:20:24;3.80;;;2.22;;
11703;SDS011;5908;51.354;7.458;2023-06-14T11:22:52;6.88;;;2.40;;
11703;SDS011;5908;51.354;7.458;2023-06-14T11:25:19;3.45;;;2.30;;
11703;SDS011;5908;51.354;7.458;2023-06-14T11:27:46;2.85;;;2.47;;
11703;SDS011;5908;51.354;7.458;2023-06-14T11:30:15;4.63;;;3.00;;
11703;SDS011;5908;51.354;7.458;2023-06-14T11:32:42;4.43;;;2.83;;
11703;SDS011;5908;51.354;7.458;2023-06-14T11:35:13;3.92;;;2.60;;
11703;SDS011;5908;51.354;7.458;2023-06-14T11:37:40;5.10;;;2.50;;
11703;SDS011;5908;51.354;7.458;2023-06-14T11:40:08;3.42;;;2.55;;
11703;SDS011;5908;51.354;7.458;2023-06-14T11:42:36;3.63;;;2.50;;
11703;SDS011;5908;51.354;7.458;2023-06-14T11:45:06;5.50;;;3.00;;
11703;SDS011;5908;51.354;7.458;2023-06-14T11:47:34;4.88;;;2.70;;
11703;SDS011;5908;51.354;7.458;2023-06-14T11:50:01;4.82;;;3.22;;
11703;SDS011;5908;51.354;7.458;2023-06-14T11:52:31;4.60;;;2.60;;
11703;SDS011;5908;51.354;7.458;2023-06-14T11:54:58;4.30;;;3.03;;
11703;SDS011;5908;51.354;7.458;2023-06-14T11:57:25;2.67;;;2.30;;
11703;SDS011;5908;51.354;7.458;2023-06-14T11:59:52;5.20;;;2.83;;
11703;SDS011;5908;51.354;7.458;2023-06-14T12:02:21;4.82;;;2.70;;
11703;SDS011;5908;51.354;7.458;2023-06-14T12:04:50;2.72;;;2.53;;
11703;SDS011;5908;51.354;7.458;2023-06-14T12:07:17;4.45;;;2.85;;
11703;SDS011;5908;51.354;7.458;2023-06-14T12:12:34;4.60;;;2.60;;
11703;SDS011;5908;51.354;7.458;2023-06-14T12:15:02;5.38;;;4.35;;
11703;SDS011;5908;51.354;7.458;2023-06-14T12:17:31;4.22;;;2.53;;
11703;SDS011;5908;51.354;7.458;2023-06-14T12:19:58;4.13;;;2.70;;
11703;SDS011;5908;51.354;7.458;2023-06-14T12:22:31;3.28;;;2.78;;
11703;SDS011;5908;51.354;7.458;2023-06-14T12:24:58;2.95;;;2.47;;
11703;SDS011;5908;51.354;7.458;2023-06-14T12:27:26;3.88;;;2.70;;
11703;SDS011;5908;51.354;7.458;2023-06-14T12:29:58;4.38;;;2.65;;
11703;SDS011;5908;51.354;7.458;2023-06-14T12:32:25;3.10;;;2.80;;
11703;SDS011;5908;51.354;7.458;2023-06-14T12:34:52;2.50;;;2.30;;
11703;SDS011;5908;51.354;7.458;2023-06-14T12:37:19;3.28;;;2.50;;
11703;SDS011;5908;51.354;7.458;2023-06-14T12:39:46;3.13;;;2.33;;
11703;SDS011;5908;51.354;7.458;2023-06-14T12:42:13;2.95;;;2.28;;
11703;SDS011;5908;51.354;7.458;2023-06-14T12:44:41;2.65;;;2.25;;
11703;SDS011;5908;51.354;7.458;2023-06-14T12:47:08;5.28;;;2.70;;
11703;SDS011;5908;51.354;7.458;2023-06-14T12:49:35;4.60;;;2.70;;
11703;SDS011;5908;51.354;7.458;2023-06-14T12:52:02;4.35;;;2.80;;
11703;SDS011;5908;51.354;7.458;2023-06-14T12:54:29;5.07;;;2.50;;
11703;SDS011;5908;51.354;7.458;2023-06-14T12:56:55;3.78;;;2.53;;
11703;SDS011;5908;51.354;7.458;2023-06-14T12:59:23;4.25;;;2.85;;
11703;SDS011;5908;51.354;7.458;2023-06-14T13:01:51;3.38;;;2.13;;
11703;SDS011;5908;51.354;7.458;2023-06-14T13:04:19;2.35;;;2.15;;
11703;SDS011;5908;51.354;7.458;2023-06-14T13:06:45;5.38;;;2.70;;
11703;SDS011;5908;51.354;7.458;2023-06-14T13:09:12;5.47;;;2.70;;
11703;SDS011;5908;51.354;7.458;2023-06-14T13:11:40;2.92;;;2.72;;
11703;SDS011;5908;51.354;7.458;2023-06-14T13:14:10;4.07;;;2.65;;
11703;SDS011;5908;51.354;7.458;2023-06-14T13:16:37;3.95;;;2.72;;
11703;SDS011;5908;51.354;7.458;2023-06-14T13:19:05;4.22;;;2.92;;
11703;SDS011;5908;51.354;7.458;2023-06-14T13:21:32;3.40;;;3.10;;
11703;SDS011;5908;51.354;7.458;2023-06-14T13:23:59;3.97;;;2.28;;
11703;SDS011;5908;51.354;7.458;2023-06-14T13:26:25;3.90;;;2.30;;
11703;SDS011;5908;51.354;7.458;2023-06-14T13:28:52;4.88;;;2.88;;
11703;SDS011;5908;51.354;7.458;2023-06-14T13:31:19;3.72;;;2.58;;
11703;SDS011;5908;51.354;7.458;2023-06-14T13:33:45;2.75;;;2.35;;
11703;SDS011;5908;51.354;7.458;2023-06-14T13:36:14;3.72;;;2.60;;
11703;SDS011;5908;51.354;7.458;2023-06-14T13:38:41;3.30;;;2.45;;
11703;SDS011;5908;51.354;7.458;2023-06-14T13:41:07;3.88;;;2.80;;
11703;SDS011;5908;51.354;7.458;2023-06-14T13:43:34;2.92;;;2.33;;
11703;SDS011;5908;51.354;7.458;2023-06-14T13:46:01;7.13;;;3.90;;
11703;SDS011;5908;51.354;7.458;2023-06-14T13:48:28;3.85;;;2.80;;
11703;SDS011;5908;51.354;7.458;2023-06-14T13:50:54;9.35;;;8.38;;
11703;SDS011;5908;51.354;7.458;2023-06-14T13:53:23;5.45;;;3.15;;
11703;SDS011;5908;51.354;7.458;2023-06-14T13:55:50;2.92;;;2.45;;
11703;SDS011;5908;51.354;7.458;2023-06-14T13:58:17;3.88;;;3.00;;
11703;SDS011;5908;51.354;7.458;2023-06-14T14:00:44;3.25;;;2.80;;
11703;SDS011;5908;51.354;7.458;2023-06-14T14:03:10;3.20;;;2.60;;
11703;SDS011;5908;51.354;7.458;2023-06-14T14:05:37;2.90;;;2.63;;
11703;SDS011;5908;51.354;7.458;2023-06-14T14:08:04;4.28;;;3.47;;
11703;SDS011;5908;51.354;7.458;2023-06-14T14:10:32;3.97;;;2.80;;
11703;SDS011;5908;51.354;7.458;2023-06-14T14:12:59;2.83;;;2.40;;
11703;SDS011;5908;51.354;7.458;2023-06-14T14:15:26;6.50;;;3.47;;
11703;SDS011;5908;51.354;7.458;2023-06-14T14:17:53;3.60;;;2.63;;
11703;SDS011;5908;51.354;7.458;2023-06-14T14:20:22;2.95;;;2.75;;
11703;SDS011;5908;51.354;7.458;2023-06-14T14:22:49;2.85;;;2.65;;
11703;SDS011;5908;51.354;7.458;2023-06-14T14:25:16;4.55;;;3.20;;
11703;SDS011;5908;51.354;7.458;2023-06-14T14:27:44;3.13;;;2.80;;
11703;SDS011;5908;51.354;7.458;2023-06-14T14:30:11;4.40;;;2.80;;
11703;SDS011;5908;51.354;7.458;2023-06-14T14:32:39;3.20;;;2.90;;
11703;SDS011;5908;51.354;7.458;2023-06-14T14:35:06;2.88;;;2.67;;
11703;SDS011;5908;51.354;7.458;2023-06-14T14:37:33;5.47;;;3.17;;
11703;SDS011;5908;51.354;7.458;2023-06-14T14:40:00;3.85;;;2.88;;
11703;SDS011;5908;51.354;7.458;2023-06-14T14:42:28;4.43;;;3.08;;
11703;SDS011;5908;51.354;7.458;2023-06-14T14:44:56;3.35;;;2.75;;
11703;SDS011;5908;51.354;7.458;2023-06-14T14:47:23;4.25;;;2.90;;
11703;SDS011;5908;51.354;7.458;2023-06-14T14:49:50;3.65;;;3.10;;
11703;SDS011;5908;51.354;7.458;2023-06-14T14:52:17;4.45;;;2.90;;
11703;SDS011;5908;51.354;7.458;2023-06-14T14:54:43;3.30;;;3.00;;
11703;SDS011;5908;51.354;7.458;2023-06-14T14:57:10;5.50;;;3.45;;
11703;SDS011;5908;51.354;7.458;2023-06-14T14:59:37;3.63;;;2.78;;
11703;SDS011;5908;51.354;7.458;2023-06-14T15:02:05;7.68;;;3.10;;
11703;SDS011;5908;51.354;7.458;2023-06-14T15:04:32;5.20;;;3.33;;
11703;SDS011;5908;51.354;7.458;2023-06-14T15:06:59;4.22;;;3.10;;